createdAt,value
2023-10-03T00:00:26.406Z,7.22
2023-10-03T00:02:56.788Z,7.57
2023-10-03T00:05:25.194Z,7.35
2023-10-03T00:07:55.866Z,7.13
2023-10-03T00:10:23.386Z,7.32
2023-10-03T00:12:52.422Z,8.02
2023-10-03T00:15:22.271Z,8.32
2023-10-03T00:17:49.311Z,9.20
2023-10-03T00:20:17.582Z,8.18
2023-10-03T00:22:45.760Z,8.88
2023-10-03T00:25:20.632Z,9.90
2023-10-03T00:27:52.563Z,9.32
2023-10-03T00:30:20.797Z,8.68
2023-10-03T00:32:54.156Z,8.68
2023-10-03T00:35:21.776Z,8.32
2023-10-03T00:37:51.998Z,8.75
2023-10-03T00:40:23.107Z,8.05
2023-10-03T00:42:50.581Z,7.93
2023-10-03T00:45:22.708Z,10.45
2023-10-03T00:47:50.867Z,8.20
2023-10-03T00:50:20.809Z,7.38
2023-10-03T00:52:56.782Z,6.85
2023-10-03T00:55:28.206Z,6.88
2023-10-03T00:58:08.425Z,6.57
2023-10-03T01:00:42.965Z,6.90
2023-10-03T01:03:33.190Z,6.68
2023-10-03T01:06:11.710Z,6.93
2023-10-03T01:08:47.576Z,6.95
2023-10-03T01:11:20.270Z,6.60
2023-10-03T01:14:00.038Z,7.15
2023-10-03T01:16:33.356Z,6.22
2023-10-03T01:19:11.187Z,6.80
2023-10-03T01:21:39.864Z,7.63
2023-10-03T01:24:07.646Z,7.78
2023-10-03T01:26:35.192Z,7.28
2023-10-03T01:29:04.094Z,7.07
2023-10-03T01:31:31.835Z,8.05
2023-10-03T01:33:58.556Z,8.40
2023-10-03T01:36:28.008Z,8.18
2023-10-03T01:38:54.684Z,7.85
2023-10-03T01:41:21.529Z,7.95
2023-10-03T01:43:48.200Z,8.02
2023-10-03T01:46:15.069Z,7.53
2023-10-03T01:48:43.730Z,8.32
2023-10-03T01:51:10.921Z,7.80
2023-10-03T01:53:41.124Z,7.55
2023-10-03T01:56:08.554Z,7.30
2023-10-03T01:58:35.678Z,7.07
2023-10-03T02:01:02.555Z,6.97
2023-10-03T02:03:32.365Z,7.72
2023-10-03T02:05:59.096Z,7.97
2023-10-03T02:08:27.121Z,8.38
2023-10-03T02:10:54.568Z,9.38
2023-10-03T02:13:24.562Z,8.68
2023-10-03T02:15:54.303Z,8.77
2023-10-03T02:18:22.712Z,8.38
2023-10-03T02:20:54.844Z,8.68
2023-10-03T02:23:25.131Z,8.60
2023-10-03T02:25:56.687Z,8.38
2023-10-03T02:28:30.095Z,8.77
2023-10-03T02:30:58.700Z,8.55
2023-10-03T02:33:25.688Z,8.23
2023-10-03T02:35:52.680Z,9.27
2023-10-03T02:38:26.521Z,8.23
2023-10-03T02:41:03.185Z,9.23
2023-10-03T02:43:35.403Z,8.00
2023-10-03T02:46:08.438Z,8.73
2023-10-03T02:48:37.070Z,9.25
2023-10-03T02:51:04.153Z,9.65
2023-10-03T02:53:32.369Z,8.35
2023-10-03T02:56:00.071Z,9.65
2023-10-03T02:58:26.762Z,9.15
2023-10-03T03:00:57.446Z,10.10
2023-10-03T03:03:31.497Z,9.95
2023-10-03T03:06:00.352Z,10.35
2023-10-03T03:08:30.258Z,13.52
2023-10-03T03:10:58.964Z,15.45
2023-10-03T03:13:30.905Z,20.33
2023-10-03T03:16:01.408Z,19.83
2023-10-03T03:18:33.989Z,18.27
2023-10-03T03:21:03.140Z,16.92
2023-10-03T03:23:36.330Z,13.50
2023-10-03T03:26:18.607Z,10.77
2023-10-03T03:28:51.849Z,9.85
2023-10-03T03:31:27.462Z,9.73
2023-10-03T03:33:59.601Z,9.25
2023-10-03T03:36:36.978Z,10.57
2023-10-03T03:39:15.932Z,12.02
2023-10-03T03:41:44.073Z,13.07
2023-10-03T03:44:14.250Z,14.55
2023-10-03T03:46:42.248Z,14.38
2023-10-03T03:49:21.734Z,13.98
2023-10-03T03:51:50.628Z,14.00
2023-10-03T03:54:17.924Z,12.55
2023-10-03T03:56:44.530Z,12.20
2023-10-03T03:59:12.709Z,11.63
2023-10-03T04:01:39.749Z,11.13
2023-10-03T04:04:09.399Z,12.90
2023-10-03T04:06:37.206Z,12.32
2023-10-03T04:09:09.314Z,10.48
2023-10-03T04:11:37.550Z,9.82
2023-10-03T04:14:07.060Z,9.48
2023-10-03T04:16:41.090Z,9.18
2023-10-03T04:19:10.060Z,9.15
2023-10-03T04:21:37.769Z,8.57
2023-10-03T04:24:06.798Z,7.85
2023-10-03T04:26:35.587Z,7.95
2023-10-03T04:29:03.106Z,7.97
2023-10-03T04:31:29.896Z,8.48
2023-10-03T04:33:57.797Z,8.23
2023-10-03T04:36:27.125Z,7.75
2023-10-03T04:38:54.724Z,7.50
2023-10-03T04:41:22.885Z,7.25
2023-10-03T04:43:51.455Z,7.43
2023-10-03T04:46:18.480Z,7.32
2023-10-03T04:48:45.262Z,6.95
2023-10-03T04:51:15.519Z,8.02
2023-10-03T04:53:42.213Z,6.90
2023-10-03T04:56:10.476Z,6.85
2023-10-03T04:58:37.235Z,6.90
2023-10-03T05:01:04.280Z,6.50
2023-10-03T05:03:32.002Z,6.72
2023-10-03T05:05:58.844Z,6.68
2023-10-03T05:08:26.409Z,6.45
2023-10-03T05:10:55.929Z,6.97
2023-10-03T05:13:23.059Z,7.00
2023-10-03T05:15:49.825Z,7.20
2023-10-03T05:18:17.350Z,6.32
2023-10-03T05:20:44.322Z,7.00
2023-10-03T05:23:11.707Z,6.82
2023-10-03T05:25:39.142Z,6.60
2023-10-03T05:28:06.758Z,7.32
2023-10-03T05:30:36.398Z,6.95
